Time;durP1;ratioP1;P1;durP2;ratioP2;P2;SDS_P1;SDS_P2;PMS_P1;PMS_P2;Temp;Humidity;BMP_temperature;BMP_pressure;BME280_temperature;BME280_humidity;BME280_pressure;Samples;Min_cycle;Max_cycle;Signal;HPM_P1;HPM_P2
2022/12/17 13:06:35;;;;;;;21.33;15.27;;;;;;;-0.89;86.59;101929.78;5045246;28;20204;-84
2022/12/17 13:09:05;;;;;;;25.07;16.03;;;;;;;-0.87;86.35;101922.81;5044255;28;20256;-84
2022/12/17 13:11:38;;;;;;;25.07;16.43;;;;;;;-0.86;86.20;101925.44;5037715;28;20664;-82
2022/12/17 13:14:16;;;;;;;23.33;15.13;;;;;;;-0.85;86.25;101928.94;5037331;28;20199;-84
2022/12/17 13:16:53;;;;;;;19.60;14.10;;;;;;;-0.82;85.94;101927.19;5036846;28;20297;-85
2022/12/17 13:19:32;;;;;;;23.83;15.07;;;;;;;-0.83;85.81;101930.69;5041897;28;20209;-84
2022/12/17 13:22:10;;;;;;;21.37;15.93;;;;;;;-0.82;85.94;101932.44;5033170;28;20575;-84
2022/12/17 13:24:37;;;;;;;19.40;14.90;;;;;;;-0.82;85.95;101935.06;5040481;28;20205;-85
2022/12/17 13:27:05;;;;;;;22.33;15.27;;;;;;;-0.81;86.11;101928.06;5041188;28;20205;-84
2022/12/17 13:29:33;;;;;;;21.27;15.30;;;;;;;-0.81;85.52;101931.56;5049626;28;20198;-84
2022/12/17 13:32:09;;;;;;;20.80;15.37;;;;;;;-0.80;85.49;101935.94;5041808;28;20222;-85
2022/12/17 13:34:49;;;;;;;24.47;15.53;;;;;;;-0.80;85.46;101929.81;5048314;28;20198;-85
2022/12/17 13:37:29;;;;;;;21.60;15.50;;;;;;;-0.80;85.35;101938.53;5044321;28;20278;-85
2022/12/17 13:40:04;;;;;;;22.97;15.07;;;;;;;-0.80;85.36;101935.06;5048719;28;20217;-86
2022/12/17 13:42:33;;;;;;;25.07;14.53;;;;;;;-0.81;85.35;101934.19;5045767;28;20212;-85
2022/12/17 13:45:02;;;;;;;25.13;15.17;;;;;;;-0.82;85.28;101937.66;5043083;28;20671;-85
2022/12/17 13:47:32;;;;;;;21.47;14.03;;;;;;;-0.81;85.13;101946.38;5042738;28;20544;-85
2022/12/17 13:50:00;;;;;;;19.83;14.23;;;;;;;-0.82;85.36;101948.13;5046101;28;20232;-85
2022/12/17 13:52:28;;;;;;;21.83;16.13;;;;;;;-0.82;85.29;101950.75;5043922;28;20198;-85
2022/12/17 13:55:07;;;;;;;23.23;15.13;;;;;;;-0.82;84.98;101944.63;5045556;28;21079;-85
2022/12/17 13:57:37;;;;;;;22.17;15.23;;;;;;;-0.84;84.91;101947.25;5044428;28;20256;-86
2022/12/17 14:00:04;;;;;;;12.27;7.33;;;;;;;-0.84;84.99;101944.63;5046880;28;20225;-85
2022/12/17 14:02:36;;;;;;;12.10;7.73;;;;;;;-0.87;84.86;101952.47;5046574;28;20716;-84
2022/12/17 14:05:04;;;;;;;8.60;5.77;;;;;;;-0.89;84.44;101956.81;5045966;28;20230;-85
2022/12/17 14:07:34;;;;;;;16.60;9.00;;;;;;;-0.89;84.27;101963.78;5045142;28;20206;-85
2022/12/17 14:10:04;;;;;;;18.50;10.50;;;;;;;-0.92;83.88;101953.31;5048590;28;20247;-85
2022/12/17 14:12:33;;;;;;;16.97;11.10;;;;;;;-0.93;83.59;101959.41;5049155;28;20574;-86
2022/12/17 14:15:02;;;;;;;14.77;10.80;;;;;;;-0.94;83.81;101955.94;5048650;28;20204;-85
2022/12/17 14:17:30;;;;;;;22.60;13.80;;;;;;;-0.95;82.92;101962.03;5047398;28;20238;-87
2022/12/17 14:20:01;;;;;;;19.90;14.63;;;;;;;-0.96;83.43;101964.63;5045603;28;20197;-85
2022/12/17 14:22:34;;;;;;;22.77;15.37;;;;;;;-0.96;83.09;101967.25;5041817;28;20584;-85
2022/12/17 14:25:01;;;;;;;22.77;14.73;;;;;;;-0.98;83.27;101972.47;5043871;28;20197;-85
2022/12/17 14:27:32;;;;;;;22.30;13.20;;;;;;;-0.99;83.07;101975.06;5045604;28;20791;-84
2022/12/17 14:29:59;;;;;;;17.27;12.57;;;;;;;-1.04;83.60;101980.25;5040902;28;20630;-86
2022/12/17 14:32:32;;;;;;;18.40;12.57;;;;;;;-1.07;83.15;101973.28;5049134;28;20206;-86
2022/12/17 14:35:00;;;;;;;24.13;12.83;;;;;;;-1.11;83.42;101978.50;5042301;28;20209;-86
2022/12/17 14:37:28;;;;;;;14.70;7.10;;;;;;;-1.16;83.09;101982.81;5047550;28;20719;-86
2022/12/17 14:40:00;;;;;;;13.23;7.87;;;;;;;-1.22;82.67;101972.31;5039964;28;20588;-85
2022/12/17 14:42:31;;;;;;;13.93;9.23;;;;;;;-1.26;83.00;101975.81;5051188;28;20290;-84
2022/12/17 14:45:00;;;;;;;14.60;9.07;;;;;;;-1.32;82.55;101975.75;5049133;28;20226;-84
2022/12/17 14:47:29;;;;;;;11.77;7.60;;;;;;;-1.37;82.59;101982.69;5047632;28;20216;-85
2022/12/17 14:50:04;;;;;;;12.20;8.97;;;;;;;-1.44;82.21;101977.44;5047627;28;20629;-84
2022/12/17 14:52:37;;;;;;;15.60;9.00;;;;;;;-1.49;81.67;101983.47;5050464;28;20198;-85
2022/12/17 14:55:26;;;;;;;14.80;9.30;;;;;;;-1.55;82.02;101983.44;5047307;28;20209;-84
2022/12/17 14:57:53;;;;;;;13.87;9.50;;;;;;;-1.62;82.04;101974.69;5051476;28;20222;-87
2022/12/17 15:00:21;;;;;;;20.03;10.37;;;;;;;-1.66;81.67;101985.97;5051986;28;20228;-86
2022/12/17 15:02:51;;;;;;;15.47;10.23;;;;;;;-1.70;81.68;101985.91;5052603;28;20271;-86
2022/12/17 15:05:19;;;;;;;22.73;10.67;;;;;;;-1.75;81.26;101989.38;5050566;28;20212;-86
2022/12/17 15:07:46;;;;;;;21.57;12.57;;;;;;;-1.80;81.09;101982.38;5055526;28;20205;-86
2022/12/17 15:10:14;;;;;;;17.47;9.63;;;;;;;-1.87;80.99;101978.81;5059133;28;20230;-86
2022/12/17 15:12:42;;;;;;;15.70;9.20;;;;;;;-1.92;80.63;101977.03;5055339;28;20301;-87
2022/12/17 15:15:12;;;;;;;13.33;8.10;;;;;;;-1.97;81.04;101981.34;5051898;28;20301;-86
2022/12/17 15:17:39;;;;;;;26.60;12.43;;;;;;;-2.04;80.56;101983.03;5048080;28;20237;-84
2022/12/17 15:20:08;;;;;;;24.27;12.93;;;;;;;-2.10;80.31;101991.66;5043985;28;20226;-84
2022/12/17 15:22:37;;;;;;;26.47;13.17;;;;;;;-2.14;80.61;101987.25;5050284;28;20228;-83
2022/12/17 15:25:05;;;;;;;27.47;15.00;;;;;;;-2.20;80.11;101987.22;5043373;28;20207;-84
2022/12/17 15:27:31;;;;;;;28.20;14.17;;;;;;;-2.23;80.35;101986.31;5040101;28;20661;-84
2022/12/17 15:29:58;;;;;;;26.23;13.50;;;;;;;-2.27;80.69;102001.06;5045738;28;21481;-82
2022/12/17 15:32:24;;;;;;;17.30;10.50;;;;;;;-2.31;80.02;101993.16;5045766;28;20209;-83
2022/12/17 15:34:50;;;;;;;13.20;8.37;;;;;;;-2.36;80.24;101994.88;5050171;28;20583;-84
2022/12/17 15:37:17;;;;;;;11.70;7.67;;;;;;;-2.43;80.15;101999.13;5047516;28;20221;-85
2022/12/17 15:39:45;;;;;;;10.10;6.77;;;;;;;-2.49;79.58;102004.28;5039868;28;20206;-84
2022/12/17 15:44:56;;;;;;;8.30;6.70;;;;;;;-2.72;79.13;102004.03;5050098;28;20275;-84
2022/12/17 15:47:22;;;;;;;10.10;6.83;;;;;;;-2.80;78.74;102003.03;5046304;28;20798;-83
2022/12/17 15:49:49;;;;;;;9.03;7.00;;;;;;;-2.90;79.37;101999.44;5044346;28;20672;-83
2022/12/17 15:52:15;;;;;;;13.60;8.17;;;;;;;-2.95;79.08;102002.84;5050013;28;20620;-83
2022/12/17 15:54:42;;;;;;;16.10;8.63;;;;;;;-3.00;79.19;102002.75;5047529;28;20208;-83
2022/12/17 15:57:11;;;;;;;15.03;8.80;;;;;;;-3.03;79.36;102005.31;5044232;28;20216;-83
2022/12/17 15:59:38;;;;;;;15.77;9.00;;;;;;;-3.06;79.89;101989.69;5043561;28;20217;-82
2022/12/17 16:02:04;;;;;;;16.33;8.67;;;;;;;-3.09;79.37;102002.66;5051475;28;20235;-84
2022/12/17 16:04:31;;;;;;;14.10;9.03;;;;;;;-3.13;79.84;102013.88;5042634;28;20695;-83
2022/12/17 16:06:57;;;;;;;12.70;8.50;;;;;;;-3.15;79.74;102018.19;5044787;28;20203;-83
2022/12/17 16:09:25;;;;;;;13.67;8.50;;;;;;;-3.19;79.87;102013.78;5042578;28;20202;-83
2022/12/17 16:11:53;;;;;;;16.50;8.60;;;;;;;-3.25;80.13;102009.38;5048213;28;20260;-83
2022/12/17 16:14:21;;;;;;;13.23;8.30;;;;;;;-3.25;80.01;102018.94;5040471;28;20221;-83
2022/12/17 16:16:48;;;;;;;13.17;8.50;;;;;;;-3.29;80.27;102011.91;5043910;28;20228;-83
2022/12/17 16:19:16;;;;;;;14.33;8.37;;;;;;;-3.30;80.41;102015.38;5040474;28;20229;-83
2022/12/17 16:21:43;;;;;;;14.27;8.50;;;;;;;-3.30;80.55;102020.56;5043282;28;20225;-84
2022/12/17 16:24:10;;;;;;;14.80;8.23;;;;;;;-3.31;80.23;102019.69;5046793;28;20205;-83
2022/12/17 16:26:36;;;;;;;12.83;9.17;;;;;;;-3.32;80.92;102017.94;5051699;28;20197;-83
2022/12/17 16:29:03;;;;;;;16.40;8.00;;;;;;;-3.29;80.87;102017.13;5045611;28;20199;-83
2022/12/17 16:31:31;;;;;;;16.57;9.60;;;;;;;-3.27;80.74;102023.22;5041891;28;20328;-83
2022/12/17 16:33:58;;;;;;;12.90;9.03;;;;;;;-3.26;80.97;102022.38;5041791;28;20210;-82
2022/12/17 16:36:25;;;;;;;12.73;8.10;;;;;;;-3.25;81.12;102029.34;5041660;28;20205;-82
2022/12/17 16:38:53;;;;;;;11.57;8.03;;;;;;;-3.27;81.12;102021.50;5043999;28;20236;-82
2022/12/17 16:41:21;;;;;;;15.73;8.67;;;;;;;-3.26;81.34;102022.38;5045611;28;20229;-82
2022/12/17 16:43:48;;;;;;;15.60;10.50;;;;;;;-3.28;80.85;102030.19;5045977;28;20236;-82
2022/12/17 16:46:25;;;;;;;16.80;10.23;;;;;;;-3.28;81.35;102039.72;5037748;28;20244;-82
2022/12/17 16:48:53;;;;;;;17.60;11.20;;;;;;;-3.31;81.33;102035.34;5041910;28;20777;-82
2022/12/17 16:51:22;;;;;;;13.23;8.93;;;;;;;-3.32;81.48;102043.13;5047063;28;20225;-83
2022/12/17 16:53:48;;;;;;;16.43;10.20;;;;;;;-3.35;81.16;102028.31;5043773;28;20205;-83
2022/12/17 16:56:16;;;;;;;14.67;9.50;;;;;;;-3.36;81.37;102042.19;5042686;28;20275;-83
2022/12/17 16:58:43;;;;;;;19.30;9.43;;;;;;;-3.37;80.79;102040.44;5044404;28;20217;-85
2022/12/17 17:01:10;;;;;;;15.33;10.40;;;;;;;-3.37;81.56;102043.03;5046250;28;20222;-84
2022/12/17 17:03:39;;;;;;;16.03;9.87;;;;;;;-3.35;81.49;102049.16;5043119;28;20202;-82
2022/12/17 17:06:07;;;;;;;14.87;10.10;;;;;;;-3.35;81.64;102046.53;5045225;28;20228;-83
2022/12/17 17:08:34;;;;;;;16.37;11.10;;;;;;;-3.35;81.26;102043.94;5039900;28;20553;-84
2022/12/17 17:11:09;;;;;;;14.50;9.70;;;;;;;-3.35;81.12;102046.53;5042811;28;20312;-82
2022/12/17 17:13:36;;;;;;;14.30;9.13;;;;;;;-3.37;81.45;102050.84;5040849;28;20205;-82
2022/12/17 17:16:03;;;;;;;14.50;8.67;;;;;;;-3.37;81.04;102048.25;5040432;28;20201;-84
2022/12/17 17:18:29;;;;;;;20.43;9.33;;;;;;;-3.36;81.38;102052.59;5042025;28;20229;-84
2022/12/17 17:21:20;;;;;;;15.27;9.37;;;;;;;-3.36;81.30;102055.22;5044045;28;20704;-83
2022/12/17 17:23:47;;;;;;;15.40;10.53;;;;;;;-3.35;81.38;102064.78;5052500;28;20295;-84
2022/12/17 17:26:15;;;;;;;15.90;10.63;;;;;;;-3.34;81.40;102065.66;5041530;28;20202;-82
2022/12/17 17:28:42;;;;;;;16.60;10.63;;;;;;;-3.33;81.56;102070.03;5048805;28;20202;-82
2022/12/17 17:31:11;;;;;;;19.27;10.53;;;;;;;-3.34;80.71;102065.66;5052104;28;20229;-83
2022/12/17 17:33:39;;;;;;;17.30;10.90;;;;;;;-3.34;81.04;102065.66;5050428;28;20202;-85
2022/12/17 17:36:08;;;;;;;22.23;12.40;;;;;;;-3.33;81.14;102064.81;5046613;28;20635;-83
2022/12/17 17:38:38;;;;;;;27.30;12.77;;;;;;;-3.35;81.09;102059.56;5045278;28;20241;-83
2022/12/17 17:41:05;;;;;;;23.70;12.17;;;;;;;-3.33;80.94;102072.63;5047186;28;20237;-83
2022/12/17 17:43:32;;;;;;;26.23;13.33;;;;;;;-3.33;80.74;102068.28;5047493;28;20225;-84
2022/12/17 17:46:04;;;;;;;29.20;13.03;;;;;;;-3.34;80.62;102076.09;5047595;28;20206;-83
2022/12/17 17:48:31;;;;;;;19.90;10.40;;;;;;;-3.34;80.31;102076.97;5046783;28;20679;-83
2022/12/17 17:50:58;;;;;;;13.90;9.77;;;;;;;-3.37;80.65;102074.28;5048257;28;20669;-82
2022/12/17 17:53:25;;;;;;;19.90;11.67;;;;;;;-3.37;80.04;102086.44;5048598;28;20209;-83
2022/12/17 17:55:53;;;;;;;20.50;11.43;;;;;;;-3.39;80.46;102083.81;5045094;28;20264;-82
2022/12/17 17:58:20;;;;;;;24.03;12.80;;;;;;;-3.41;79.90;102087.28;5043781;28;20236;-84
2022/12/17 18:00:46;;;;;;;20.50;12.30;;;;;;;-3.44;79.82;102082.88;5053041;28;20225;-85
2022/12/17 18:03:13;;;;;;;23.77;14.10;;;;;;;-3.45;79.84;102088.06;5049493;28;20217;-82
2022/12/17 18:05:41;;;;;;;19.87;11.93;;;;;;;-3.47;79.81;102087.16;5053533;28;20831;-84
2022/12/17 18:08:08;;;;;;;16.23;10.50;;;;;;;-3.47;79.41;102094.97;5043583;28;20213;-83
2022/12/17 18:10:34;;;;;;;18.77;11.17;;;;;;;-3.49;79.44;102097.53;5048947;28;20225;-84
2022/12/17 18:15:47;;;;;;;15.70;9.50;;;;;;;-3.53;79.49;102101.81;5050339;28;20217;-82
2022/12/17 18:18:13;;;;;;;16.70;9.60;;;;;;;-3.55;79.12;102100.03;5049530;28;20477;-83
2022/12/17 18:20:40;;;;;;;15.53;9.13;;;;;;;-3.58;79.02;102100.84;5047295;28;20228;-84
2022/12/17 18:23:06;;;;;;;15.77;8.93;;;;;;;-3.62;79.27;102100.78;5051302;28;20212;-87
2022/12/17 18:25:34;;;;;;;13.50;8.83;;;;;;;-3.65;79.10;102103.34;5044814;28;20241;-85
2022/12/17 18:28:00;;;;;;;14.83;9.53;;;;;;;-3.68;78.55;102101.56;5050792;28;20202;-83
2022/12/17 18:30:28;;;;;;;18.07;11.03;;;;;;;-3.71;78.46;102098.88;5051421;28;20229;-83
2022/12/17 18:32:54;;;;;;;15.17;10.93;;;;;;;-3.73;78.82;102108.41;5046857;28;20592;-83
2022/12/17 18:35:21;;;;;;;19.40;11.77;;;;;;;-3.75;78.64;102109.22;5046833;28;20209;-82
2022/12/17 18:37:47;;;;;;;20.63;10.13;;;;;;;-3.77;78.94;102111.81;5045619;28;20202;-86
2022/12/17 18:40:14;;;;;;;19.60;10.40;;;;;;;-3.78;78.76;102104.84;5050734;28;20586;-82
2022/12/17 18:45:25;;;;;;;17.43;8.90;;;;;;;-3.82;79.00;102108.25;5048849;28;20224;-85
2022/12/17 18:47:52;;;;;;;14.40;8.53;;;;;;;-3.83;78.92;102110.81;5048485;28;20256;-85
2022/12/17 18:50:19;;;;;;;14.63;9.33;;;;;;;-3.85;78.99;102121.19;5042980;28;20313;-86
2022/12/17 18:52:45;;;;;;;14.97;8.80;;;;;;;-3.87;79.04;102128.97;5054312;28;20652;-85
2022/12/17 18:55:12;;;;;;;15.93;8.97;;;;;;;-3.87;79.15;102128.09;5052395;28;21419;-84
2022/12/17 18:57:38;;;;;;;16.60;8.90;;;;;;;-3.88;79.52;102132.41;5047516;28;20209;-82
2022/12/17 19:00:06;;;;;;;15.10;8.43;;;;;;;-3.87;78.94;102133.28;5054472;28;20229;-84
2022/12/17 19:02:33;;;;;;;15.40;8.47;;;;;;;-3.88;78.99;102141.94;5048286;28;20205;-83
2022/12/17 19:05:00;;;;;;;13.90;8.67;;;;;;;-3.90;79.39;102135.84;5051158;28;20214;-82
2022/12/17 19:07:27;;;;;;;14.93;8.67;;;;;;;-3.91;79.14;102144.50;5049811;28;20583;-86
2022/12/17 19:09:53;;;;;;;15.07;9.17;;;;;;;-3.93;79.12;102135.78;5049984;28;20214;-86
2022/12/17 19:12:20;;;;;;;19.43;10.23;;;;;;;-3.93;79.05;102140.97;5044325;28;20202;-85
2022/12/17 19:14:46;;;;;;;19.33;9.30;;;;;;;-3.95;79.21;102138.38;5049846;28;20237;-82
2022/12/17 19:17:13;;;;;;;17.87;8.57;;;;;;;-3.95;79.24;102137.50;5051324;28;20209;-85
2022/12/17 19:19:39;;;;;;;14.90;8.87;;;;;;;-3.96;79.19;102141.81;5052758;28;20233;-83
2022/12/17 19:22:07;;;;;;;13.27;9.23;;;;;;;-3.98;79.29;102143.50;5045684;28;20233;-84
2022/12/17 19:24:37;;;;;;;16.37;9.13;;;;;;;-3.99;79.26;102153.88;5051978;28;20205;-83
2022/12/17 19:27:03;;;;;;;18.60;9.37;;;;;;;-4.01;79.23;102146.06;5046714;28;20209;-82
2022/12/17 19:29:30;;;;;;;19.20;11.00;;;;;;;-4.02;79.29;102143.41;5043092;28;20684;-84
2022/12/17 19:31:56;;;;;;;16.40;9.73;;;;;;;-4.04;79.13;102138.19;5047429;28;20236;-84
2022/12/17 19:34:23;;;;;;;17.90;11.27;;;;;;;-4.06;79.46;102145.06;5046879;28;20203;-84
2022/12/17 19:36:49;;;;;;;17.07;10.03;;;;;;;-4.08;79.15;102133.75;5049517;28;20206;-83
2022/12/17 19:39:19;;;;;;;21.30;12.27;;;;;;;-4.12;79.06;102138.88;5048675;28;20232;-82
2022/12/17 19:41:46;;;;;;;16.13;8.77;;;;;;;-4.14;79.50;102140.56;5047707;28;20292;-82
2022/12/17 19:44:15;;;;;;;18.17;10.93;;;;;;;-4.19;79.34;102143.06;5046949;28;20207;-82
2022/12/17 19:46:43;;;;;;;15.10;10.10;;;;;;;-4.22;79.28;102137.81;5050236;28;20247;-82
2022/12/17 19:49:11;;;;;;;14.67;9.90;;;;;;;-4.26;79.40;102136.84;5045972;28;20300;-84
2022/12/17 19:51:38;;;;;;;16.77;10.27;;;;;;;-4.26;79.04;102139.47;5043363;28;20229;-83
2022/12/17 19:54:04;;;;;;;18.10;10.20;;;;;;;-4.29;79.37;102139.38;5053346;28;20214;-81
2022/12/17 19:56:33;;;;;;;15.97;10.30;;;;;;;-4.31;79.24;102143.72;5044609;28;20206;-84
2022/12/17 19:59:01;;;;;;;16.70;10.00;;;;;;;-4.32;79.76;102147.16;5051022;28;20217;-84
2022/12/17 20:01:29;;;;;;;16.47;10.13;;;;;;;-4.34;79.56;102151.44;5051392;28;20217;-84
2022/12/17 20:03:57;;;;;;;22.13;11.37;;;;;;;-4.36;79.74;102145.31;5048507;28;20206;-84
2022/12/17 20:06:26;;;;;;;20.00;10.97;;;;;;;-4.37;79.85;102153.09;5046479;28;20201;-82
2022/12/17 20:08:54;;;;;;;16.93;11.17;;;;;;;-4.39;80.01;102146.97;5046151;28;20202;-84
2022/12/17 20:11:32;;;;;;;18.10;11.07;;;;;;;-4.40;80.01;102156.50;5051771;28;20280;-81
2022/12/17 20:14:03;;;;;;;19.97;11.73;;;;;;;-4.41;79.85;102157.34;5047354;28;20202;-83
2022/12/17 20:16:31;;;;;;;15.70;10.33;;;;;;;-4.43;79.97;102155.53;5050545;28;20206;-84
2022/12/17 20:18:59;;;;;;;16.73;10.53;;;;;;;-4.47;80.13;102162.41;5044472;28;20226;-84
2022/12/17 20:21:25;;;;;;;16.20;10.30;;;;;;;-4.49;80.07;102169.31;5054891;28;20220;-83
2022/12/17 20:23:52;;;;;;;15.17;9.90;;;;;;;-4.50;80.10;102161.47;5052649;28;20202;-84
2022/12/17 20:26:19;;;;;;;18.37;9.87;;;;;;;-4.53;80.07;102164.00;5051501;28;20202;-84
2022/12/17 20:28:46;;;;;;;16.27;10.03;;;;;;;-4.57;80.41;102163.06;5053709;28;20579;-83
2022/12/17 20:31:14;;;;;;;15.47;10.97;;;;;;;-4.62;79.89;102162.06;5048114;28;20368;-82
2022/12/17 20:33:40;;;;;;;21.53;11.03;;;;;;;-4.69;79.68;102167.97;5049629;28;20216;-83
2022/12/17 20:36:09;;;;;;;16.47;9.93;;;;;;;-4.80;79.29;102167.72;5054179;28;20229;-84
2022/12/17 20:38:36;;;;;;;18.03;11.00;;;;;;;-4.91;79.07;102162.28;5043755;28;20575;-83
2022/12/17 20:41:09;;;;;;;18.73;10.53;;;;;;;-5.00;78.87;102169.84;5049711;28;20218;-84
2022/12/17 20:43:35;;;;;;;14.60;10.13;;;;;;;-5.04;78.92;102175.81;5047286;28;20190;-82
2022/12/17 20:46:02;;;;;;;17.73;10.80;;;;;;;-5.08;78.87;102180.91;5052411;28;20703;-83
2022/12/17 20:48:30;;;;;;;18.20;11.17;;;;;;;-5.11;79.03;102179.09;5046016;28;20205;-82
2022/12/17 20:50:56;;;;;;;16.67;11.50;;;;;;;-5.14;78.94;102185.94;5052154;28;20292;-83
2022/12/17 20:53:23;;;;;;;18.10;11.57;;;;;;;-5.14;79.23;102181.63;5047685;28;20237;-83
2022/12/17 20:55:59;;;;;;;23.17;11.67;;;;;;;-5.15;79.50;102185.06;5050898;28;20209;-83
2022/12/17 20:58:25;;;;;;;20.97;12.67;;;;;;;-5.14;79.50;102198.91;5056189;28;20201;-84
2022/12/17 21:00:52;;;;;;;21.03;10.93;;;;;;;-5.12;79.89;102205.91;5055177;28;20229;-84
2022/12/17 21:03:19;;;;;;;20.30;11.33;;;;;;;-5.11;80.02;102199.00;5056184;28;20216;-84
2022/12/17 21:05:47;;;;;;;19.70;9.67;;;;;;;-5.09;80.34;102200.81;5050951;28;20221;-82
2022/12/17 21:08:13;;;;;;;16.73;9.90;;;;;;;-5.08;80.23;102212.06;5056016;28;20236;-84
2022/12/17 21:10:42;;;;;;;18.00;11.10;;;;;;;-5.07;80.49;102209.50;5058373;28;20224;-81
2022/12/17 21:15:54;;;;;;;17.13;9.73;;;;;;;-5.06;80.84;102220.78;5055097;28;20706;-83
2022/12/17 21:18:21;;;;;;;17.40;9.33;;;;;;;-5.06;80.98;102213.00;5052143;28;20210;-83
2022/12/17 21:20:56;;;;;;;15.50;8.57;;;;;;;-5.05;81.08;102218.22;5057986;28;20232;-83
2022/12/17 21:23:23;;;;;;;16.40;9.43;;;;;;;-5.03;81.20;102219.16;5058276;28;20208;-83
2022/12/17 21:25:57;;;;;;;14.80;9.30;;;;;;;-5.03;81.25;102216.56;5055811;28;20284;-83
2022/12/17 21:28:24;;;;;;;14.77;8.93;;;;;;;-5.02;81.36;102212.22;5059394;28;20252;-83
2022/12/17 21:30:50;;;;;;;16.73;9.23;;;;;;;-5.03;81.67;102213.94;5062709;28;20263;-86
2022/12/17 21:33:17;;;;;;;18.20;10.40;;;;;;;-5.03;81.70;102211.34;5054524;28;20205;-85
2022/12/17 21:35:44;;;;;;;18.30;10.77;;;;;;;-5.03;81.90;102213.94;5057560;28;20205;-83
2022/12/17 21:38:11;;;;;;;16.70;11.87;;;;;;;-5.05;81.93;102207.84;5056574;28;20221;-82
2022/12/17 21:40:38;;;;;;;17.60;12.10;;;;;;;-5.06;82.15;102210.38;5058426;28;20694;-84
2022/12/17 21:43:04;;;;;;;17.90;11.77;;;;;;;-5.08;82.24;102215.53;5053434;28;20205;-84
2022/12/17 21:45:36;;;;;;;17.90;10.77;;;;;;;-5.11;82.17;102215.47;5054072;28;20197;-83
2022/12/17 21:48:03;;;;;;;23.30;12.77;;;;;;;-5.12;82.17;102226.69;5055757;28;20205;-84
2022/12/17 21:50:29;;;;;;;25.17;13.50;;;;;;;-5.14;82.30;102228.38;5056348;28;20232;-81
2022/12/17 21:52:56;;;;;;;27.50;13.13;;;;;;;-5.15;82.12;102236.13;5055135;28;20205;-85
2022/12/17 21:55:24;;;;;;;18.10;11.50;;;;;;;-5.16;82.86;102240.44;5056625;28;20225;-85
2022/12/17 21:57:51;;;;;;;21.13;10.80;;;;;;;-5.18;82.38;102233.44;5052198;28;20746;-85
2022/12/17 22:00:18;;;;;;;15.57;9.53;;;;;;;-5.18;82.42;102233.44;5045973;28;20253;-85
2022/12/17 22:02:44;;;;;;;14.77;9.83;;;;;;;-5.21;82.52;102234.25;5040684;28;20219;-84
2022/12/17 22:05:11;;;;;;;16.87;8.93;;;;;;;-5.19;82.60;102234.31;5047920;28;20201;-84
2022/12/17 22:07:37;;;;;;;18.23;9.37;;;;;;;-5.22;82.74;102232.50;5048586;28;20214;-81
2022/12/17 22:10:04;;;;;;;14.03;8.37;;;;;;;-5.20;82.67;102232.53;5053612;28;20209;-83
2022/12/17 22:15:17;;;;;;;15.47;9.10;;;;;;;-5.17;83.04;102238.66;5051137;28;20205;-84
2022/12/17 22:17:43;;;;;;;15.50;7.70;;;;;;;-5.16;82.73;102235.25;5050238;28;20221;-83
2022/12/17 22:20:11;;;;;;;12.03;7.67;;;;;;;-5.15;82.85;102238.72;5051802;28;20305;-84
2022/12/17 22:22:37;;;;;;;14.17;9.17;;;;;;;-5.15;83.02;102236.13;5043793;28;20716;-84
2022/12/17 22:25:04;;;;;;;16.60;9.30;;;;;;;-5.16;82.95;102244.75;5055583;28;20216;-84
2022/12/17 22:27:32;;;;;;;16.00;8.57;;;;;;;-5.16;83.42;102242.16;5050528;28;20212;-84
2022/12/17 22:33:01;;;;;;;12.10;7.57;;;;;;;-5.17;83.32;102240.38;5051039;28;20250;-82
2022/12/17 22:35:33;;;;;;;13.70;8.23;;;;;;;-5.15;83.40;102246.50;5045942;28;20210;-83
2022/12/17 22:38:00;;;;;;;15.40;8.63;;;;;;;-5.17;83.45;102254.25;5048345;28;20644;-84
2022/12/17 22:40:26;;;;;;;15.80;9.30;;;;;;;-5.18;83.49;102257.69;5044456;28;20226;-82
2022/12/17 22:45:39;;;;;;;15.23;8.57;;;;;;;-5.17;83.60;102255.97;5046458;28;20297;-83
2022/12/17 22:48:06;;;;;;;14.73;7.87;;;;;;;-5.16;83.52;102253.41;5042249;28;20237;-83
2022/12/17 22:50:32;;;;;;;15.93;8.97;;;;;;;-5.16;83.36;102260.31;5046282;28;20221;-84
2022/12/17 22:52:59;;;;;;;15.97;9.27;;;;;;;-5.17;83.42;102254.25;5045397;28;20230;-83
2022/12/17 22:55:26;;;;;;;15.13;8.87;;;;;;;-5.17;83.56;102259.44;5052711;28;20272;-83
2022/12/17 22:57:54;;;;;;;19.77;8.67;;;;;;;-5.19;83.31;102252.47;5042169;28;20214;-83
2022/12/17 23:00:22;;;;;;;12.77;8.87;;;;;;;-5.20;83.63;102248.13;5049244;28;20236;-82
2022/12/17 23:02:52;;;;;;;12.90;8.20;;;;;;;-5.20;83.56;102254.19;5049487;28;20772;-84
2022/12/17 23:05:18;;;;;;;12.60;8.70;;;;;;;-5.20;83.72;102259.41;5043494;28;20201;-84
2022/12/17 23:07:45;;;;;;;13.43;7.93;;;;;;;-5.19;83.45;102247.28;5044180;28;20296;-85
2022/12/17 23:10:11;;;;;;;13.50;8.33;;;;;;;-5.21;83.58;102248.97;5047267;28;20222;-82
2022/12/17 23:12:50;;;;;;;15.57;8.23;;;;;;;-5.22;83.40;102248.09;5045847;28;20213;-83
2022/12/17 23:15:19;;;;;;;13.67;8.47;;;;;;;-5.23;83.53;102243.72;5044652;28;20292;-83
2022/12/17 23:17:46;;;;;;;12.83;8.17;;;;;;;-5.25;83.41;102243.69;5039989;28;20256;-82
2022/12/17 23:20:14;;;;;;;13.80;8.00;;;;;;;-5.26;83.60;102239.31;5049228;28;20325;-82
2022/12/17 23:22:41;;;;;;;15.50;7.93;;;;;;;-5.27;83.28;102234.97;5048516;28;20214;-84
2022/12/17 23:25:08;;;;;;;12.27;7.73;;;;;;;-5.27;83.35;102234.09;5049160;28;20686;-84
2022/12/17 23:27:35;;;;;;;11.27;6.23;;;;;;;-5.27;83.29;102223.69;5047040;28;20292;-84
2022/12/17 23:30:01;;;;;;;10.30;6.63;;;;;;;-5.28;83.50;102229.72;5045842;28;20202;-84
2022/12/17 23:32:29;;;;;;;13.53;7.07;;;;;;;-5.26;83.53;102235.84;5042442;28;20205;-81
2022/12/17 23:34:56;;;;;;;11.27;6.27;;;;;;;-5.26;83.33;102235.84;5041857;28;20213;-83
2022/12/17 23:37:22;;;;;;;12.03;6.87;;;;;;;-5.26;83.14;102241.94;5046781;28;20205;-83
2022/12/17 23:39:48;;;;;;;9.63;6.50;;;;;;;-5.26;83.43;102244.53;5046838;28;20229;-83
2022/12/17 23:42:15;;;;;;;9.53;6.37;;;;;;;-5.27;83.32;102242.75;5041806;28;20210;-82
2022/12/17 23:44:41;;;;;;;11.83;6.43;;;;;;;-5.27;83.36;102244.47;5047758;28;20210;-83
2022/12/17 23:47:08;;;;;;;14.60;7.80;;;;;;;-5.27;83.19;102247.06;5044921;28;20205;-83
2022/12/17 23:49:36;;;;;;;12.17;6.77;;;;;;;-5.27;83.32;102253.16;5044492;28;20208;-83
2022/12/17 23:52:02;;;;;;;10.67;6.70;;;;;;;-5.27;83.53;102267.84;5043483;28;20221;-81
2022/12/17 23:54:29;;;;;;;11.50;6.80;;;;;;;-5.29;83.24;102269.53;5043986;28;20205;-82
2022/12/17 23:56:55;;;;;;;11.67;6.67;;;;;;;-5.32;83.30;102261.66;5045970;28;20233;-83
2022/12/17 23:59:22;;;;;;;13.47;6.90;;;;;;;-5.34;83.09;102264.19;5045106;28;20198;-84
